Time;durP1;ratioP1;P1;durP2;ratioP2;P2;SDS_P1;SDS_P2;PMS_P1;PMS_P2;Temp;Humidity;BMP_temperature;BMP_pressure;BME280_temperature;BME280_humidity;BME280_pressure;Samples;Min_cycle;Max_cycle;Signal;HPM_P1;HPM_P2
2021/05/22 00:01:28;;;;;;;4.13;1.97;;;20.60;99.90;;;;;;5066042;28;20200;-87
2021/05/22 00:04:01;;;;;;;4.00;2.17;;;20.20;99.90;;;;;;5067050;28;20215;-87
2021/05/22 00:06:33;;;;;;;3.63;2.10;;;20.30;99.90;;;;;;5066288;28;20272;-90
2021/05/22 00:09:04;;;;;;;3.23;1.80;;;20.60;99.90;;;;;;5042537;28;20200;-89
2021/05/22 00:11:36;;;;;;;3.97;2.00;;;20.80;99.90;;;;;;5037598;28;20603;-87
2021/05/22 00:14:08;;;;;;;3.20;1.97;;;20.80;99.90;;;;;;5037013;28;20320;-88
2021/05/22 00:16:39;;;;;;;3.47;1.90;;;20.80;99.90;;;;;;5036348;28;20237;-89
2021/05/22 00:19:10;;;;;;;3.50;2.30;;;20.40;99.90;;;;;;5037707;28;20212;-88
2021/05/22 00:21:41;;;;;;;4.90;2.00;;;19.70;99.90;;;;;;5037116;28;20245;-89
2021/05/22 00:24:12;;;;;;;4.47;2.07;;;19.80;99.90;;;;;;5037387;28;20205;-88
2021/05/22 00:26:42;;;;;;;3.60;1.90;;;20.00;99.90;;;;;;5036413;28;20275;-88
2021/05/22 00:29:14;;;;;;;4.03;1.80;;;20.10;99.90;;;;;;5047760;28;20212;-88
2021/05/22 00:31:45;;;;;;;3.30;2.00;;;20.10;99.90;;;;;;5056036;28;20265;-88
2021/05/22 00:34:15;;;;;;;5.87;2.10;;;20.20;99.90;;;;;;5056343;28;20204;-87
2021/05/22 00:36:47;;;;;;;3.53;1.90;;;20.30;99.90;;;;;;5055140;28;20302;-87
2021/05/22 00:39:18;;;;;;;2.90;2.10;;;20.10;99.90;;;;;;5056886;28;20218;-86
2021/05/22 00:41:49;;;;;;;4.27;2.10;;;20.10;99.90;;;;;;5056813;28;20208;-87
2021/05/22 00:44:21;;;;;;;5.57;1.90;;;20.30;99.90;;;;;;5057166;28;20615;-87
2021/05/22 00:46:51;;;;;;;4.17;1.90;;;20.10;99.90;;;;;;5055126;28;20274;-86
2021/05/22 00:49:22;;;;;;;3.53;2.07;;;20.10;99.90;;;;;;5056184;28;20274;-87
2021/05/22 00:51:52;;;;;;;5.60;2.03;;;20.10;99.90;;;;;;5056568;28;20699;-86
2021/05/22 00:54:23;;;;;;;8.07;2.10;;;20.40;99.90;;;;;;5062218;28;20200;-87
2021/05/22 00:56:54;;;;;;;4.37;2.20;;;20.40;99.90;;;;;;5071993;28;20219;-86
2021/05/22 00:59:27;;;;;;;4.17;2.27;;;21.00;99.90;;;;;;5075292;28;20196;-87
2021/05/22 01:02:00;;;;;;;5.30;2.30;;;21.70;99.90;;;;;;5062056;28;20212;-88
2021/05/22 01:04:30;;;;;;;3.93;2.10;;;21.80;99.90;;;;;;5057603;28;20196;-87
2021/05/22 01:07:01;;;;;;;5.63;2.27;;;22.00;99.90;;;;;;5055199;28;20243;-87
2021/05/22 01:09:33;;;;;;;5.67;2.20;;;22.60;99.90;;;;;;5056968;28;20299;-88
2021/05/22 01:12:08;;;;;;;4.40;2.17;;;22.70;99.90;;;;;;5055691;28;20311;-87
2021/05/22 01:14:44;;;;;;;5.00;2.20;;;23.20;99.90;;;;;;5055555;28;20203;-87
2021/05/22 01:17:18;;;;;;;5.10;2.40;;;23.00;99.90;;;;;;5054753;28;20242;-88
2021/05/22 01:19:58;;;;;;;5.63;2.63;;;23.20;99.90;;;;;;5055422;28;20205;-88
2021/05/22 01:22:39;;;;;;;4.93;2.43;;;23.00;99.90;;;;;;5058732;28;20208;-87
2021/05/22 01:25:20;;;;;;;4.90;2.10;;;23.30;99.90;;;;;;5055970;28;20224;-87
2021/05/22 01:27:52;;;;;;;6.63;2.20;;;23.00;99.90;;;;;;5055462;28;20204;-88
2021/05/22 01:30:24;;;;;;;4.77;2.40;;;23.40;99.90;;;;;;5037521;28;20204;-87
2021/05/22 01:32:54;;;;;;;3.13;2.00;;;23.60;99.90;;;;;;5054684;28;20228;-87
2021/05/22 01:35:25;;;;;;;6.47;2.50;;;23.80;99.90;;;;;;5054458;28;20200;-88
2021/05/22 01:37:56;;;;;;;4.33;2.27;;;23.30;99.90;;;;;;5068056;28;20246;-88
2021/05/22 01:40:28;;;;;;;3.97;2.30;;;23.20;99.90;;;;;;5075311;28;20265;-88
2021/05/22 01:42:59;;;;;;;3.87;2.30;;;23.30;99.90;;;;;;5075159;28;20552;-89
2021/05/22 01:45:30;;;;;;;3.80;1.80;;;23.50;99.90;;;;;;5074539;28;20258;-89
2021/05/22 01:48:03;;;;;;;4.70;2.57;;;22.40;99.90;;;;;;5073855;28;20204;-89
2021/05/22 01:50:36;;;;;;;4.60;2.30;;;22.80;99.90;;;;;;5074776;28;20223;-88
2021/05/22 01:53:10;;;;;;;4.67;2.40;;;22.30;99.90;;;;;;5073135;28;20629;-89
2021/05/22 01:55:44;;;;;;;5.60;2.27;;;22.60;99.90;;;;;;5075260;28;20618;-89
2021/05/22 01:58:16;;;;;;;4.43;2.10;;;22.50;99.90;;;;;;5073655;28;20697;-88
2021/05/22 02:00:46;;;;;;;3.93;2.03;;;22.80;99.90;;;;;;5065472;28;20663;-90
2021/05/22 02:03:27;;;;;;;4.73;2.20;;;22.10;99.90;;;;;;5037619;28;20705;-88
2021/05/22 02:05:59;;;;;;;4.53;2.10;;;21.50;99.90;;;;;;5055440;28;20227;-89
2021/05/22 02:08:33;;;;;;;5.53;2.03;;;21.20;99.90;;;;;;5052795;28;20243;-89
2021/05/22 02:11:05;;;;;;;2.37;1.90;;;20.30;99.90;;;;;;5056816;28;20216;-88
2021/05/22 02:13:39;;;;;;;3.80;2.33;;;19.30;99.90;;;;;;5056168;28;20259;-90
2021/05/22 02:16:12;;;;;;;5.37;1.70;;;18.60;99.90;;;;;;5058551;28;20232;-90
2021/05/22 02:18:44;;;;;;;6.67;2.10;;;18.40;99.90;;;;;;5055527;28;20247;-90
2021/05/22 02:21:16;;;;;;;5.73;2.30;;;18.20;99.90;;;;;;5055630;28;20208;-90
2021/05/22 02:23:49;;;;;;;4.90;1.90;;;18.10;99.90;;;;;;5055702;28;20208;-89
2021/05/22 02:26:23;;;;;;;5.00;2.17;;;18.10;99.90;;;;;;5055889;28;20219;-88
2021/05/22 02:28:55;;;;;;;5.20;2.10;;;18.00;99.90;;;;;;5054139;28;20294;-88
2021/05/22 02:31:30;;;;;;;3.80;2.20;;;17.90;99.90;;;;;;5054296;28;20231;-86
2021/05/22 02:34:05;;;;;;;5.23;2.10;;;17.70;99.90;;;;;;5054039;28;20235;-87
2021/05/22 02:36:38;;;;;;;3.03;1.87;;;17.50;99.90;;;;;;5055130;28;20222;-88
2021/05/22 02:39:09;;;;;;;3.87;2.17;;;17.50;99.90;;;;;;5055133;28;20660;-89
2021/05/22 02:41:43;;;;;;;4.73;2.00;;;17.40;99.90;;;;;;5054811;28;20238;-90
2021/05/22 02:44:15;;;;;;;3.97;1.90;;;17.40;99.90;;;;;;5054462;28;20292;-89
2021/05/22 02:46:50;;;;;;;5.27;2.03;;;17.30;99.90;;;;;;5053448;28;20242;-89
2021/05/22 02:49:27;;;;;;;4.83;2.20;;;17.20;99.90;;;;;;5054265;28;20581;-88
2021/05/22 02:52:00;;;;;;;2.53;1.80;;;17.10;99.90;;;;;;5054591;28;20200;-87
2021/05/22 02:54:32;;;;;;;5.30;2.50;;;16.90;99.90;;;;;;5054013;28;20579;-88
2021/05/22 02:57:05;;;;;;;7.83;2.30;;;16.70;99.90;;;;;;5053301;28;20243;-87
2021/05/22 02:59:37;;;;;;;3.27;2.27;;;16.60;99.90;;;;;;5053629;28;20242;-87
2021/05/22 03:02:10;;;;;;;5.60;2.73;;;16.60;99.90;;;;;;5069609;28;20243;-88
2021/05/22 03:04:40;;;;;;;4.43;1.70;;;16.40;99.90;;;;;;5054417;28;20209;-88
2021/05/22 03:07:11;;;;;;;5.63;2.00;;;16.40;99.90;;;;;;5054305;28;20258;-89
2021/05/22 03:09:42;;;;;;;3.93;2.00;;;16.30;99.90;;;;;;5055037;28;20239;-88
2021/05/22 03:12:19;;;;;;;5.67;2.07;;;16.20;99.90;;;;;;5055141;28;20205;-88
2021/05/22 03:14:51;;;;;;;3.70;2.03;;;16.00;99.90;;;;;;5064074;28;20227;-89
2021/05/22 03:17:21;;;;;;;6.10;2.53;;;16.00;99.90;;;;;;5071957;28;20224;-88
2021/05/22 03:19:52;;;;;;;4.40;2.00;;;15.90;99.90;;;;;;5076214;28;20242;-88
2021/05/22 03:22:23;;;;;;;4.53;2.30;;;15.90;99.90;;;;;;5063900;28;20594;-88
2021/05/22 03:24:54;;;;;;;3.53;2.23;;;15.80;99.90;;;;;;5059892;28;20234;-88
2021/05/22 03:27:33;;;;;;;4.80;2.43;;;15.70;99.90;;;;;;5058447;28;20751;-89
2021/05/22 03:30:03;;;;;;;5.13;2.30;;;15.50;99.90;;;;;;5059053;28;20278;-88
2021/05/22 03:32:34;;;;;;;5.40;2.30;;;15.40;99.90;;;;;;5059188;28;20220;-88
2021/05/22 03:35:06;;;;;;;7.23;2.57;;;15.30;99.90;;;;;;5058772;28;20208;-87
2021/05/22 03:37:36;;;;;;;6.30;2.77;;;15.20;99.90;;;;;;5060015;28;20235;-88
2021/05/22 03:40:08;;;;;;;5.00;2.40;;;15.10;99.90;;;;;;5062223;28;20262;-87
2021/05/22 03:42:41;;;;;;;3.57;2.53;;;15.00;99.90;;;;;;5061312;28;20212;-87
2021/05/22 03:45:13;;;;;;;3.30;2.70;;;14.90;99.90;;;;;;5061626;28;20228;-88
2021/05/22 03:47:43;;;;;;;4.80;2.70;;;14.80;99.90;;;;;;5064354;28;20212;-88
2021/05/22 03:50:14;;;;;;;7.07;3.07;;;14.80;99.90;;;;;;5065895;28;20208;-87
2021/05/22 03:52:45;;;;;;;3.87;2.30;;;14.70;99.90;;;;;;5065967;28;20242;-88
2021/05/22 03:55:17;;;;;;;3.47;2.40;;;14.70;99.90;;;;;;5078236;28;20219;-88
2021/05/22 03:57:49;;;;;;;4.57;2.40;;;14.70;99.90;;;;;;5081180;28;20208;-88
2021/05/22 04:00:20;;;;;;;6.40;2.43;;;14.60;99.90;;;;;;5079147;28;20196;-86
2021/05/22 04:02:51;;;;;;;10.90;2.43;;;14.60;99.90;;;;;;5076700;28;20204;-86
2021/05/22 04:05:22;;;;;;;3.73;2.20;;;14.50;99.90;;;;;;5076427;28;20208;-88
2021/05/22 04:07:52;;;;;;;4.67;2.80;;;14.40;99.90;;;;;;5076690;28;20346;-87
2021/05/22 04:10:23;;;;;;;4.23;2.70;;;14.20;99.90;;;;;;5071020;28;20234;-88
2021/05/22 04:12:55;;;;;;;9.93;2.80;;;14.10;99.90;;;;;;5060502;28;20272;-88
2021/05/22 04:15:26;;;;;;;5.63;2.63;;;14.10;99.90;;;;;;5061053;28;20266;-88
2021/05/22 04:17:57;;;;;;;5.27;2.53;;;14.00;99.90;;;;;;5057385;28;20224;-88
2021/05/22 04:20:29;;;;;;;5.17;2.50;;;14.00;99.90;;;;;;5057159;28;20208;-88
2021/05/22 04:23:01;;;;;;;2.80;2.43;;;13.90;99.90;;;;;;5057043;28;20658;-88
2021/05/22 04:25:32;;;;;;;7.03;2.97;;;13.80;99.90;;;;;;5056680;28;20311;-88
2021/05/22 04:28:06;;;;;;;6.43;3.00;;;13.70;99.90;;;;;;5057011;28;20228;-88
2021/05/22 04:30:38;;;;;;;5.77;3.00;;;13.60;99.90;;;;;;5058292;28;20223;-87
2021/05/22 04:33:08;;;;;;;6.40;3.13;;;13.60;99.90;;;;;;5060217;28;20238;-88
2021/05/22 04:35:39;;;;;;;4.50;3.37;;;13.50;99.90;;;;;;5058733;28;20200;-88
2021/05/22 04:38:10;;;;;;;6.70;2.90;;;13.40;99.90;;;;;;5057063;28;20664;-87
2021/05/22 04:40:41;;;;;;;7.90;3.27;;;13.40;99.90;;;;;;5063672;28;20212;-87
2021/05/22 04:43:17;;;;;;;5.77;2.70;;;13.30;99.90;;;;;;5047425;28;20204;-87
2021/05/22 04:45:47;;;;;;;6.73;3.30;;;13.30;99.90;;;;;;5063912;28;20213;-87
2021/05/22 04:48:18;;;;;;;6.37;2.50;;;13.30;99.90;;;;;;5063408;28;20212;-87
2021/05/22 04:50:49;;;;;;;6.93;2.80;;;13.20;99.90;;;;;;5061744;28;20296;-87
2021/05/22 04:53:19;;;;;;;4.67;3.10;;;13.20;99.90;;;;;;5057283;28;20212;-88
2021/05/22 04:55:52;;;;;;;5.20;3.13;;;13.10;99.90;;;;;;5058297;28;20270;-87
2021/05/22 04:58:24;;;;;;;5.97;3.40;;;13.00;99.90;;;;;;5059357;28;20232;-87
2021/05/22 05:00:54;;;;;;;5.00;3.10;;;12.90;99.90;;;;;;5057012;28;20208;-87
2021/05/22 05:03:24;;;;;;;5.67;3.20;;;12.80;99.90;;;;;;5058486;28;20231;-87
2021/05/22 05:05:56;;;;;;;6.30;3.27;;;12.90;99.90;;;;;;5044185;28;20216;-88
2021/05/22 05:08:31;;;;;;;6.03;2.97;;;12.80;99.90;;;;;;5061115;28;20208;-87
2021/05/22 05:11:02;;;;;;;5.67;2.87;;;12.70;99.90;;;;;;5047522;28;20243;-88
2021/05/22 05:13:35;;;;;;;4.80;2.80;;;12.70;99.90;;;;;;5058983;28;20204;-88
2021/05/22 05:16:07;;;;;;;7.40;2.97;;;12.70;99.90;;;;;;5056622;28;20230;-88
2021/05/22 05:18:37;;;;;;;5.40;3.27;;;12.70;99.90;;;;;;5060192;28;20621;-88
2021/05/22 05:21:08;;;;;;;7.67;3.30;;;12.60;99.90;;;;;;5057179;28;20254;-88
2021/05/22 05:23:39;;;;;;;7.27;3.20;;;12.50;99.90;;;;;;5056284;28;20718;-87
2021/05/22 05:26:09;;;;;;;5.07;3.20;;;12.50;99.90;;;;;;5056649;28;20650;-87
2021/05/22 05:28:40;;;;;;;5.43;3.20;;;12.50;99.90;;;;;;5056281;28;20208;-87
2021/05/22 05:31:11;;;;;;;4.63;2.77;;;12.40;99.90;;;;;;5056382;28;20262;-87
2021/05/22 05:33:42;;;;;;;6.60;3.50;;;12.30;99.90;;;;;;5057710;28;20710;-88
2021/05/22 05:36:13;;;;;;;6.47;3.83;;;12.40;99.90;;;;;;5068871;28;20283;-90
2021/05/22 05:38:44;;;;;;;6.40;3.80;;;12.30;99.90;;;;;;5070536;28;20250;-86
2021/05/22 05:41:14;;;;;;;6.90;3.90;;;12.30;99.90;;;;;;5065131;28;20249;-86
2021/05/22 05:43:47;;;;;;;6.13;3.93;;;12.30;99.90;;;;;;5060016;28;20224;-87
2021/05/22 05:46:18;;;;;;;6.63;3.70;;;12.30;99.90;;;;;;5037319;28;20208;-87
2021/05/22 05:48:48;;;;;;;4.33;3.53;;;12.30;99.90;;;;;;5055047;28;20239;-86
2021/05/22 05:51:19;;;;;;;7.00;4.30;;;12.20;99.90;;;;;;5054335;28;20274;-87
2021/05/22 05:53:50;;;;;;;7.00;4.27;;;12.20;99.90;;;;;;5055315;28;20230;-86
2021/05/22 05:56:22;;;;;;;8.37;4.87;;;12.10;99.90;;;;;;5054306;28;20581;-86
2021/05/22 05:58:59;;;;;;;8.60;4.60;;;12.00;99.90;;;;;;5054781;28;20281;-86
2021/05/22 06:01:30;;;;;;;9.47;4.90;;;11.90;99.90;;;;;;5054489;28;20204;-86
2021/05/22 06:04:01;;;;;;;7.83;4.47;;;11.90;99.90;;;;;;5055187;28;20212;-86
2021/05/22 06:06:33;;;;;;;4.73;3.97;;;11.80;99.90;;;;;;5056334;28;20280;-89
2021/05/22 06:09:08;;;;;;;8.33;4.30;;;11.80;99.90;;;;;;5055502;28;20208;-88
2021/05/22 06:11:39;;;;;;;6.90;4.43;;;11.70;99.90;;;;;;5056192;28;20204;-88
2021/05/22 06:14:15;;;;;;;9.70;4.20;;;11.60;99.90;;;;;;5056545;28;20219;-88
2021/05/22 06:16:46;;;;;;;8.67;4.40;;;11.60;99.90;;;;;;5053860;28;20204;-88
2021/05/22 06:19:17;;;;;;;5.67;4.20;;;11.70;99.90;;;;;;5054845;28;20232;-88
2021/05/22 06:21:47;;;;;;;6.93;4.30;;;11.70;99.90;;;;;;5055503;28;20685;-88
2021/05/22 06:24:18;;;;;;;6.03;4.43;;;11.70;99.90;;;;;;5054833;28;20204;-88
2021/05/22 06:26:48;;;;;;;8.37;5.60;;;11.60;99.90;;;;;;5054604;28;20686;-88
2021/05/22 06:29:19;;;;;;;8.23;6.20;;;11.60;99.90;;;;;;5054642;28;20204;-88
2021/05/22 06:31:50;;;;;;;11.00;5.47;;;11.50;99.90;;;;;;5054586;28;20219;-88
2021/05/22 06:34:21;;;;;;;9.87;5.57;;;11.40;99.90;;;;;;5054674;28;20201;-87
2021/05/22 06:36:53;;;;;;;8.13;5.20;;;11.30;99.90;;;;;;5053989;28;20622;-87
2021/05/22 06:39:24;;;;;;;6.90;4.60;;;11.30;99.90;;;;;;5037260;28;20294;-87
2021/05/22 06:41:55;;;;;;;6.83;5.10;;;11.30;99.90;;;;;;5037031;28;20223;-87
2021/05/22 06:44:31;;;;;;;8.37;5.20;;;11.30;99.90;;;;;;5054574;28;20212;-88
2021/05/22 06:47:02;;;;;;;5.30;4.60;;;11.20;99.90;;;;;;5033121;28;20317;-87
2021/05/22 06:49:33;;;;;;;8.80;5.10;;;11.20;99.90;;;;;;5034952;28;20216;-87
2021/05/22 06:52:04;;;;;;;6.50;4.60;;;11.20;99.90;;;;;;5053735;28;20242;-87
2021/05/22 06:54:35;;;;;;;7.43;4.53;;;11.20;99.90;;;;;;5056936;28;20261;-87
2021/05/22 06:57:07;;;;;;;7.30;4.97;;;11.20;99.90;;;;;;5057595;28;20232;-87
2021/05/22 06:59:39;;;;;;;6.30;4.60;;;11.10;99.90;;;;;;5058166;28;20224;-87
2021/05/22 07:02:10;;;;;;;8.20;5.33;;;11.10;99.90;;;;;;5059444;28;20250;-88
2021/05/22 07:04:43;;;;;;;8.73;5.67;;;11.10;99.90;;;;;;5058339;28;20215;-88
2021/05/22 07:07:13;;;;;;;10.47;5.60;;;11.00;99.90;;;;;;5058676;28;20239;-88
2021/05/22 07:09:44;;;;;;;8.80;5.80;;;11.00;99.90;;;;;;5058222;28;20235;-88
2021/05/22 07:12:13;;;;;;;8.20;5.03;;;10.90;99.90;;;;;;5057966;28;20296;-88
2021/05/22 07:14:46;;;;;;;6.67;4.40;;;10.80;99.90;;;;;;5057923;28;20214;-88
2021/05/22 07:17:17;;;;;;;8.43;4.43;;;10.80;99.90;;;;;;5057572;28;20223;-88
2021/05/22 07:19:48;;;;;;;6.03;4.73;;;10.80;99.90;;;;;;5057611;28;20251;-88
2021/05/22 07:22:19;;;;;;;7.77;4.80;;;11.00;99.90;;;;;;5057415;28;20232;-88
2021/05/22 07:24:50;;;;;;;8.07;5.57;;;11.00;99.90;;;;;;5057619;28;20208;-88
2021/05/22 07:27:20;;;;;;;10.10;5.80;;;11.00;99.90;;;;;;5056693;28;20275;-88
2021/05/22 07:29:53;;;;;;;9.90;6.37;;;10.80;99.90;;;;;;5057220;28;20215;-87
2021/05/22 07:32:24;;;;;;;8.60;6.27;;;10.80;99.90;;;;;;5057919;28;20734;-88
2021/05/22 07:34:55;;;;;;;12.73;6.77;;;10.80;99.90;;;;;;5057599;28;20536;-87
2021/05/22 07:37:26;;;;;;;9.17;6.80;;;10.80;99.90;;;;;;5056410;28;20608;-88
2021/05/22 07:39:57;;;;;;;7.93;6.30;;;10.70;99.90;;;;;;5057107;28;20260;-87
2021/05/22 07:42:28;;;;;;;8.47;5.37;;;10.70;99.90;;;;;;5057876;28;20634;-87
2021/05/22 07:45:02;;;;;;;9.87;6.07;;;10.60;99.90;;;;;;5057340;28;20219;-87
2021/05/22 07:47:33;;;;;;;6.80;5.43;;;10.50;99.90;;;;;;5056915;28;20543;-87
2021/05/22 07:50:04;;;;;;;7.90;5.53;;;10.40;99.90;;;;;;5057927;28;20200;-87
2021/05/22 07:52:35;;;;;;;8.30;5.77;;;10.50;99.90;;;;;;5042027;28;20211;-87
2021/05/22 07:55:06;;;;;;;7.77;5.67;;;10.40;99.90;;;;;;5072049;28;20554;-87
2021/05/22 07:57:37;;;;;;;7.07;5.10;;;10.40;99.90;;;;;;5070555;28;20215;-88
2021/05/22 08:00:11;;;;;;;7.17;5.47;;;10.50;99.90;;;;;;5065590;28;20271;-87
2021/05/22 08:02:43;;;;;;;10.67;5.47;;;10.50;99.90;;;;;;5059332;28;20231;-87
2021/05/22 08:05:14;;;;;;;11.17;6.00;;;10.50;99.90;;;;;;5056546;28;20203;-86
2021/05/22 08:07:46;;;;;;;8.17;5.40;;;10.60;99.90;;;;;;5056202;28;20216;-88
2021/05/22 08:10:18;;;;;;;8.93;4.90;;;10.40;99.90;;;;;;5056900;28;20227;-87
2021/05/22 08:12:49;;;;;;;10.03;5.50;;;10.20;99.90;;;;;;5056768;28;20239;-87
2021/05/22 08:15:21;;;;;;;8.70;5.30;;;10.30;99.90;;;;;;5057022;28;20579;-87
2021/05/22 08:17:53;;;;;;;6.67;4.97;;;10.20;99.90;;;;;;5039061;28;20254;-87
2021/05/22 08:20:23;;;;;;;9.20;5.00;;;10.10;99.90;;;;;;5056790;28;20292;-87
2021/05/22 08:22:53;;;;;;;9.43;5.37;;;10.10;99.90;;;;;;5056399;28;20208;-86
2021/05/22 08:25:23;;;;;;;12.17;5.10;;;10.10;99.90;;;;;;5056497;28;20291;-87
2021/05/22 08:27:54;;;;;;;11.53;4.80;;;10.10;99.90;;;;;;5055517;28;20579;-87
2021/05/22 08:30:27;;;;;;;7.73;4.50;;;10.10;99.90;;;;;;5056343;28;20616;-87
2021/05/22 08:32:57;;;;;;;7.40;4.63;;;10.10;99.90;;;;;;5056356;28;20204;-86
2021/05/22 08:35:29;;;;;;;8.90;5.57;;;10.10;99.90;;;;;;5055880;28;20277;-86
2021/05/22 08:37:59;;;;;;;7.87;5.77;;;10.10;99.90;;;;;;5055055;28;20257;-86
2021/05/22 08:40:31;;;;;;;8.97;5.00;;;10.10;99.90;;;;;;5055449;28;20337;-86
2021/05/22 08:43:01;;;;;;;6.47;5.30;;;10.10;99.90;;;;;;5055553;28;20262;-86
2021/05/22 08:45:34;;;;;;;8.63;5.17;;;10.10;99.90;;;;;;5054867;28;20214;-86
2021/05/22 08:48:05;;;;;;;9.77;5.70;;;10.00;99.90;;;;;;5054739;28;20258;-86
2021/05/22 08:50:36;;;;;;;7.43;5.13;;;9.90;99.90;;;;;;5054197;28;20238;-86
2021/05/22 08:53:07;;;;;;;7.90;5.40;;;10.00;99.90;;;;;;5054600;28;20298;-85
2021/05/22 08:55:37;;;;;;;8.80;5.27;;;9.90;99.90;;;;;;5054871;28;20231;-86
2021/05/22 08:58:08;;;;;;;9.57;5.07;;;9.70;99.90;;;;;;5053963;28;20248;-87
2021/05/22 09:00:40;;;;;;;9.70;5.53;;;9.60;99.90;;;;;;5035170;28;20237;-86
2021/05/22 09:03:12;;;;;;;9.07;5.10;;;9.50;99.90;;;;;;5035175;28;20212;-87
2021/05/22 09:05:44;;;;;;;9.27;5.43;;;9.70;99.90;;;;;;5035522;28;20243;-87
2021/05/22 09:08:16;;;;;;;10.77;5.77;;;9.70;99.90;;;;;;5035015;28;20263;-87
2021/05/22 09:10:48;;;;;;;10.83;6.23;;;9.70;99.90;;;;;;5036628;28;20236;-86
2021/05/22 09:13:23;;;;;;;7.97;6.43;;;9.70;99.90;;;;;;5036876;28;20212;-86
2021/05/22 09:15:58;;;;;;;10.97;6.57;;;9.50;99.90;;;;;;5037943;28;20220;-87
2021/05/22 09:18:35;;;;;;;11.30;6.70;;;9.60;99.90;;;;;;5039139;28;20201;-87
2021/05/22 09:21:07;;;;;;;8.47;6.30;;;9.60;99.90;;;;;;5041432;28;20729;-87
2021/05/22 09:23:40;;;;;;;8.73;6.10;;;9.60;99.90;;;;;;5055496;28;20321;-88
2021/05/22 09:26:12;;;;;;;10.53;6.73;;;9.50;99.90;;;;;;5056954;28;20286;-89
2021/05/22 09:28:46;;;;;;;9.03;6.20;;;9.50;99.90;;;;;;5055613;28;20209;-86
2021/05/22 09:31:20;;;;;;;9.40;6.33;;;9.50;99.90;;;;;;5056219;28;20203;-87
2021/05/22 09:33:58;;;;;;;8.17;5.63;;;9.40;99.90;;;;;;5055583;28;20211;-87
2021/05/22 09:36:29;;;;;;;11.13;6.43;;;9.40;99.90;;;;;;5050263;28;20239;-87
2021/05/22 09:39:00;;;;;;;8.70;6.20;;;9.30;99.90;;;;;;5039881;28;20308;-86
2021/05/22 09:41:35;;;;;;;10.60;6.33;;;9.40;99.90;;;;;;5042993;28;20717;-86
2021/05/22 09:44:07;;;;;;;9.70;6.13;;;9.30;99.90;;;;;;5056009;28;20218;-85
2021/05/22 09:46:59;;;;;;;12.07;6.10;;;9.30;99.90;;;;;;5059161;28;20207;-85
2021/05/22 09:49:32;;;;;;;11.17;6.30;;;9.20;99.90;;;;;;5061997;28;20678;-87
2021/05/22 09:52:09;;;;;;;10.00;6.50;;;9.00;99.90;;;;;;5053940;28;20580;-86
2021/05/22 09:54:43;;;;;;;10.23;6.57;;;9.10;99.90;;;;;;5054777;28;20735;-86
2021/05/22 09:57:20;;;;;;;11.53;6.63;;;9.10;99.90;;;;;;5053384;28;20218;-86
2021/05/22 10:00:12;;;;;;;10.10;7.47;;;9.10;99.90;;;;;;5053304;28;20594;-86
2021/05/22 10:02:46;;;;;;;10.00;6.83;;;9.10;99.90;;;;;;5054183;28;20207;-86
2021/05/22 10:05:18;;;;;;;11.63;7.33;;;9.00;99.90;;;;;;5053988;28;20299;-87
2021/05/22 10:07:52;;;;;;;11.67;7.10;;;9.10;99.90;;;;;;5053829;28;20201;-87
2021/05/22 10:10:24;;;;;;;12.57;6.93;;;9.10;99.90;;;;;;5057507;28;20224;-87
2021/05/22 10:12:55;;;;;;;12.57;6.93;;;9.20;99.90;;;;;;5055234;28;20210;-87
2021/05/22 10:15:25;;;;;;;10.37;7.10;;;9.30;99.90;;;;;;5072725;28;20204;-88
2021/05/22 10:17:58;;;;;;;12.00;6.77;;;9.40;99.90;;;;;;5045192;28;20212;-87
2021/05/22 10:20:29;;;;;;;14.13;7.07;;;9.50;99.90;;;;;;5054600;28;20360;-86
2021/05/22 10:23:01;;;;;;;10.10;6.33;;;9.70;99.90;;;;;;5053695;28;20212;-86
2021/05/22 10:25:32;;;;;;;11.37;7.13;;;9.70;99.90;;;;;;5053972;28;20691;-86
2021/05/22 10:28:03;;;;;;;9.90;6.50;;;9.80;99.90;;;;;;5052130;28;20234;-87
2021/05/22 10:30:34;;;;;;;12.23;6.90;;;10.00;99.90;;;;;;5053540;28;20254;-86
2021/05/22 10:33:06;;;;;;;12.80;6.43;;;10.10;99.90;;;;;;5053504;28;20219;-86
2021/05/22 10:35:45;;;;;;;16.20;7.20;;;10.20;99.90;;;;;;5053153;28;20228;-86
2021/05/22 10:38:40;;;;;;;13.33;6.80;;;10.30;99.90;;;;;;5052483;28;20238;-86
2021/05/22 10:41:13;;;;;;;10.90;7.10;;;10.30;99.90;;;;;;5048716;28;20227;-87
2021/05/22 10:43:50;;;;;;;8.53;6.70;;;10.40;99.90;;;;;;5053212;28;20259;-86
2021/05/22 10:46:21;;;;;;;8.07;6.17;;;10.50;99.90;;;;;;5051468;28;20199;-86
2021/05/22 10:48:56;;;;;;;11.97;6.53;;;10.60;99.90;;;;;;5053375;28;20290;-86
2021/05/22 10:51:34;;;;;;;12.20;6.97;;;10.60;99.90;;;;;;5053163;28;20287;-85
2021/05/22 10:54:10;;;;;;;8.13;6.10;;;10.50;99.90;;;;;;5053231;28;20270;-86
2021/05/22 10:57:07;;;;;;;12.53;6.43;;;10.70;99.90;;;;;;5052027;28;20215;-86
2021/05/22 10:59:39;;;;;;;8.80;6.23;;;10.70;99.90;;;;;;5029452;28;20303;-85
2021/05/22 11:02:36;;;;;;;12.23;7.33;;;10.70;99.90;;;;;;5053269;28;20216;-86
2021/05/22 11:05:43;;;;;;;12.57;7.17;;;10.70;99.90;;;;;;5052707;28;20236;-87
2021/05/22 11:08:31;;;;;;;13.33;7.43;;;10.60;99.90;;;;;;5052477;28;20633;-87
2021/05/22 11:11:02;;;;;;;14.40;7.60;;;10.50;99.90;;;;;;5052755;28;20242;-86
2021/05/22 11:13:41;;;;;;;15.70;8.70;;;10.40;99.90;;;;;;5052873;28;20208;-87
2021/05/22 11:16:35;;;;;;;17.23;8.10;;;10.50;99.90;;;;;;5052131;28;20227;-88
2021/05/22 11:19:10;;;;;;;18.67;8.80;;;10.60;99.90;;;;;;5053057;28;20216;-87
2021/05/22 11:21:40;;;;;;;12.70;8.13;;;10.60;99.90;;;;;;5052983;28;20296;-87
2021/05/22 11:24:15;;;;;;;13.23;7.93;;;10.60;99.90;;;;;;5052657;28;20220;-86
2021/05/22 11:27:04;;;;;;;18.63;8.93;;;10.50;99.90;;;;;;5052664;28;20211;-87
2021/05/22 11:29:58;;;;;;;11.33;8.40;;;10.50;99.90;;;;;;5052864;28;20207;-86
2021/05/22 11:32:56;;;;;;;17.33;9.10;;;10.50;99.90;;;;;;5052945;28;20817;-87
2021/05/22 11:35:48;;;;;;;14.67;8.90;;;10.60;99.90;;;;;;5052997;28;20208;-86
2021/05/22 11:38:40;;;;;;;14.83;8.73;;;10.60;99.90;;;;;;5032053;28;20213;-86
2021/05/22 11:41:16;;;;;;;14.37;8.80;;;10.40;99.90;;;;;;5034113;28;20259;-86
2021/05/22 11:43:47;;;;;;;16.40;8.37;;;10.50;99.90;;;;;;5069442;28;20203;-86
2021/05/22 11:46:18;;;;;;;17.00;9.33;;;10.40;99.90;;;;;;5075409;28;20214;-86
2021/05/22 11:48:53;;;;;;;13.90;9.73;;;10.30;99.90;;;;;;5077005;28;20207;-87
2021/05/22 11:51:25;;;;;;;15.13;9.80;;;10.20;99.90;;;;;;5076952;28;20264;-86
2021/05/22 11:53:58;;;;;;;18.53;10.07;;;10.30;99.90;;;;;;5075743;28;20200;-86
2021/05/22 11:56:31;;;;;;;15.37;9.47;;;10.30;99.90;;;;;;5075574;28;20211;-86
2021/05/22 11:59:03;;;;;;;16.50;9.60;;;10.30;99.90;;;;;;5058702;28;20200;-85
2021/05/22 12:01:38;;;;;;;17.03;10.07;;;10.30;99.90;;;;;;5076334;28;20709;-86
2021/05/22 12:04:11;;;;;;;19.37;9.73;;;10.30;99.90;;;;;;5077004;28;20233;-86
2021/05/22 12:06:42;;;;;;;19.23;11.23;;;10.20;99.90;;;;;;5076736;28;20277;-87
2021/05/22 12:09:16;;;;;;;16.20;10.00;;;9.90;99.90;;;;;;5076954;28;20221;-87
2021/05/22 12:12:01;;;;;;;13.73;9.33;;;9.80;99.90;;;;;;5077149;28;20658;-87
2021/05/22 12:14:39;;;;;;;14.70;9.63;;;9.80;99.90;;;;;;5077698;28;20626;-88
2021/05/22 12:17:10;;;;;;;18.73;9.80;;;9.70;99.90;;;;;;5086956;28;20214;-87
2021/05/22 12:19:42;;;;;;;18.07;9.77;;;9.70;99.90;;;;;;5087120;28;20271;-88
2021/05/22 12:22:13;;;;;;;14.60;9.57;;;9.70;99.90;;;;;;5086379;28;20231;-88
2021/05/22 12:24:45;;;;;;;17.77;9.00;;;9.90;99.90;;;;;;5087360;28;20217;-87
2021/05/22 12:27:20;;;;;;;15.97;8.77;;;9.90;99.90;;;;;;5090257;28;20211;-88
2021/05/22 12:29:52;;;;;;;15.33;9.53;;;9.90;99.90;;;;;;5080457;28;20208;-88
2021/05/22 12:32:23;;;;;;;18.30;9.77;;;9.80;99.90;;;;;;5076785;28;20200;-88
2021/05/22 12:34:59;;;;;;;20.53;9.67;;;9.70;99.90;;;;;;5064561;28;20315;-87
2021/05/22 12:37:32;;;;;;;21.70;9.87;;;9.80;99.90;;;;;;5061265;28;20246;-85
2021/05/22 12:40:05;;;;;;;14.60;9.00;;;9.70;99.90;;;;;;5060568;28;20247;-87
2021/05/22 12:42:38;;;;;;;15.77;9.77;;;9.70;99.90;;;;;;5061952;28;20203;-87
2021/05/22 12:45:14;;;;;;;20.40;9.93;;;9.60;99.90;;;;;;5056660;28;20212;-87
2021/05/22 12:47:45;;;;;;;15.70;9.67;;;9.60;99.90;;;;;;5056973;28;20226;-87
2021/05/22 12:50:18;;;;;;;17.33;10.37;;;9.60;99.90;;;;;;5055914;28;20293;-87
2021/05/22 12:52:51;;;;;;;17.33;9.60;;;9.60;99.90;;;;;;5058231;28;20201;-87
2021/05/22 12:55:23;;;;;;;18.97;10.50;;;9.70;99.90;;;;;;5061743;28;20662;-86
2021/05/22 12:57:55;;;;;;;14.80;9.77;;;9.60;99.90;;;;;;5057892;28;20282;-87
2021/05/22 13:00:29;;;;;;;16.87;10.73;;;9.50;99.90;;;;;;5058819;28;20203;-87
2021/05/22 13:03:00;;;;;;;16.40;9.77;;;9.60;99.90;;;;;;5063333;28;20212;-86
2021/05/22 13:05:39;;;;;;;18.43;10.63;;;9.60;99.90;;;;;;5066890;28;20682;-87
2021/05/22 13:08:14;;;;;;;18.93;9.60;;;9.70;99.90;;;;;;5056772;28;20242;-87
2021/05/22 13:10:45;;;;;;;18.10;10.80;;;9.80;99.90;;;;;;5060137;28;20318;-87
2021/05/22 13:13:19;;;;;;;17.23;9.93;;;9.90;99.90;;;;;;5058143;28;20670;-87
2021/05/22 13:15:52;;;;;;;16.77;9.90;;;9.90;99.90;;;;;;5061540;28;20216;-88